sensor_id;sensor_type;location;lat;lon;timestamp;temperature;humidity
10905;DHT22;5505;51.450;9.254;2023-02-28T00:00:38;-1.30;99.90
10905;DHT22;5505;51.450;9.254;2023-02-28T00:03:25;-1.30;99.90
10905;DHT22;5505;51.450;9.254;2023-02-28T00:06:14;-1.30;99.90
10905;DHT22;5505;51.450;9.254;2023-02-28T00:09:01;-1.40;99.90
10905;DHT22;5505;51.450;9.254;2023-02-28T00:11:48;-0.40;99.90
10905;DHT22;5505;51.450;9.254;2023-02-28T00:14:34;-1.40;99.90
10905;DHT22;5505;51.450;9.254;2023-02-28T00:17:23;-0.30;99.90
10905;DHT22;5505;51.450;9.254;2023-02-28T00:20:11;-1.30;99.90
10905;DHT22;5505;51.450;9.254;2023-02-28T00:23:00;-1.30;99.90
10905;DHT22;5505;51.450;9.254;2023-02-28T00:25:46;-1.30;99.90
10905;DHT22;5505;51.450;9.254;2023-02-28T00:28:33;-2.60;99.90
10905;DHT22;5505;51.450;9.254;2023-02-28T00:31:20;-1.30;99.90
10905;DHT22;5505;51.450;9.254;2023-02-28T00:34:07;-1.30;99.90
10905;DHT22;5505;51.450;9.254;2023-02-28T00:36:53;-1.30;99.90
10905;DHT22;5505;51.450;9.254;2023-02-28T00:39:43;-1.30;99.90
10905;DHT22;5505;51.450;9.254;2023-02-28T00:42:29;-1.30;99.90
10905;DHT22;5505;51.450;9.254;2023-02-28T00:45:18;-0.80;99.90
10905;DHT22;5505;51.450;9.254;2023-02-28T00:48:06;-1.40;99.90
10905;DHT22;5505;51.450;9.254;2023-02-28T00:50:52;-1.40;99.90
10905;DHT22;5505;51.450;9.254;2023-02-28T00:53:39;-1.50;99.90
10905;DHT22;5505;51.450;9.254;2023-02-28T00:56:27;-1.70;99.90
10905;DHT22;5505;51.450;9.254;2023-02-28T00:59:15;-1.50;99.90
10905;DHT22;5505;51.450;9.254;2023-02-28T01:02:02;-1.50;99.90
10905;DHT22;5505;51.450;9.254;2023-02-28T01:04:49;-1.50;99.90
10905;DHT22;5505;51.450;9.254;2023-02-28T01:07:36;-1.60;99.90
10905;DHT22;5505;51.450;9.254;2023-02-28T01:10:24;-1.00;99.90
10905;DHT22;5505;51.450;9.254;2023-02-28T01:13:14;2.20;99.90
10905;DHT22;5505;51.450;9.254;2023-02-28T01:16:01;-1.50;99.90
10905;DHT22;5505;51.450;9.254;2023-02-28T01:18:49;-1.50;99.90
10905;DHT22;5505;51.450;9.254;2023-02-28T01:21:36;-1.50;99.90
10905;DHT22;5505;51.450;9.254;2023-02-28T01:24:23;-1.40;99.90
10905;DHT22;5505;51.450;9.254;2023-02-28T01:27:09;0.00;99.90
10905;DHT22;5505;51.450;9.254;2023-02-28T01:29:57;-1.50;99.90
10905;DHT22;5505;51.450;9.254;2023-02-28T01:32:44;-1.60;99.90
10905;DHT22;5505;51.450;9.254;2023-02-28T01:35:32;-1.60;99.90
10905;DHT22;5505;51.450;9.254;2023-02-28T01:38:19;-1.60;99.90
10905;DHT22;5505;51.450;9.254;2023-02-28T01:41:06;-1.60;99.90
10905;DHT22;5505;51.450;9.254;2023-02-28T01:44:03;-1.60;99.90
10905;DHT22;5505;51.450;9.254;2023-02-28T01:46:51;-1.70;99.90
10905;DHT22;5505;51.450;9.254;2023-02-28T01:49:39;-0.40;99.90
10905;DHT22;5505;51.450;9.254;2023-02-28T01:52:27;-1.70;99.90
10905;DHT22;5505;51.450;9.254;2023-02-28T01:55:15;-1.80;99.90
10905;DHT22;5505;51.450;9.254;2023-02-28T01:58:04;-1.80;99.90
10905;DHT22;5505;51.450;9.254;2023-02-28T02:00:52;-1.90;99.90
10905;DHT22;5505;51.450;9.254;2023-02-28T02:03:40;-1.90;99.90
10905;DHT22;5505;51.450;9.254;2023-02-28T02:06:29;-1.30;99.90
10905;DHT22;5505;51.450;9.254;2023-02-28T02:09:18;-1.90;99.90
10905;DHT22;5505;51.450;9.254;2023-02-28T02:12:13;-1.90;99.90
10905;DHT22;5505;51.450;9.254;2023-02-28T02:15:07;-1.90;99.90
10905;DHT22;5505;51.450;9.254;2023-02-28T02:18:03;-1.90;99.90
10905;DHT22;5505;51.450;9.254;2023-02-28T02:21:31;-1.90;99.90
10905;DHT22;5505;51.450;9.254;2023-02-28T02:24:58;-1.80;99.90
10905;DHT22;5505;51.450;9.254;2023-02-28T02:28:11;-1.80;99.90
10905;DHT22;5505;51.450;9.254;2023-02-28T02:31:49;-1.90;99.90
10905;DHT22;5505;51.450;9.254;2023-02-28T02:34:52;-1.80;99.90
10905;DHT22;5505;51.450;9.254;2023-02-28T02:37:44;-1.80;99.90
10905;DHT22;5505;51.450;9.254;2023-02-28T02:40:37;-1.80;99.90
10905;DHT22;5505;51.450;9.254;2023-02-28T02:43:28;-1.80;99.90
10905;DHT22;5505;51.450;9.254;2023-02-28T02:46:19;-1.70;99.90
10905;DHT22;5505;51.450;9.254;2023-02-28T02:49:10;-1.80;99.90
10905;DHT22;5505;51.450;9.254;2023-02-28T02:52:03;-1.70;99.90
10905;DHT22;5505;51.450;9.254;2023-02-28T02:54:52;-1.80;99.90
10905;DHT22;5505;51.450;9.254;2023-02-28T02:57:46;-2.40;99.90
10905;DHT22;5505;51.450;9.254;2023-02-28T03:00:37;-1.80;99.90
10905;DHT22;5505;51.450;9.254;2023-02-28T03:03:26;-1.10;99.90
10905;DHT22;5505;51.450;9.254;2023-02-28T03:06:15;-1.80;99.90
10905;DHT22;5505;51.450;9.254;2023-02-28T03:09:03;-1.80;99.90
10905;DHT22;5505;51.450;9.254;2023-02-28T03:11:55;-1.80;99.90
10905;DHT22;5505;51.450;9.254;2023-02-28T03:14:51;-1.80;99.90
10905;DHT22;5505;51.450;9.254;2023-02-28T03:17:54;-0.10;99.90
10905;DHT22;5505;51.450;9.254;2023-02-28T03:20:50;-1.80;99.90
10905;DHT22;5505;51.450;9.254;2023-02-28T03:23:45;-2.30;99.90
10905;DHT22;5505;51.450;9.254;2023-02-28T03:26:39;-1.80;99.90
10905;DHT22;5505;51.450;9.254;2023-02-28T03:29:31;-1.80;99.90
10905;DHT22;5505;51.450;9.254;2023-02-28T03:32:25;-1.80;99.90
10905;DHT22;5505;51.450;9.254;2023-02-28T03:35:18;-1.80;99.90
10905;DHT22;5505;51.450;9.254;2023-02-28T03:38:12;-1.70;99.90
10905;DHT22;5505;51.450;9.254;2023-02-28T03:41:15;-1.70;99.90
10905;DHT22;5505;51.450;9.254;2023-02-28T03:44:09;-1.70;99.90
10905;DHT22;5505;51.450;9.254;2023-02-28T03:47:02;-1.70;99.90
10905;DHT22;5505;51.450;9.254;2023-02-28T03:49:54;-1.60;99.90
10905;DHT22;5505;51.450;9.254;2023-02-28T03:52:47;0.30;99.90
10905;DHT22;5505;51.450;9.254;2023-02-28T03:55:39;-1.70;99.90
10905;DHT22;5505;51.450;9.254;2023-02-28T03:58:30;-1.70;99.90
10905;DHT22;5505;51.450;9.254;2023-02-28T04:01:23;-1.70;99.90
10905;DHT22;5505;51.450;9.254;2023-02-28T04:04:11;-1.80;99.90
10905;DHT22;5505;51.450;9.254;2023-02-28T04:07:03;-1.80;99.90
10905;DHT22;5505;51.450;9.254;2023-02-28T04:09:50;-1.50;99.90
10905;DHT22;5505;51.450;9.254;2023-02-28T04:12:36;-1.80;99.90
10905;DHT22;5505;51.450;9.254;2023-02-28T04:15:23;-1.80;99.90
10905;DHT22;5505;51.450;9.254;2023-02-28T04:18:11;-1.80;99.90
10905;DHT22;5505;51.450;9.254;2023-02-28T04:21:00;-1.80;99.90
10905;DHT22;5505;51.450;9.254;2023-02-28T04:23:47;-1.80;99.90
10905;DHT22;5505;51.450;9.254;2023-02-28T04:26:35;-1.80;99.90
10905;DHT22;5505;51.450;9.254;2023-02-28T04:29:24;-1.80;99.90
10905;DHT22;5505;51.450;9.254;2023-02-28T04:32:11;-1.80;99.90
10905;DHT22;5505;51.450;9.254;2023-02-28T04:34:59;-1.80;99.90
10905;DHT22;5505;51.450;9.254;2023-02-28T04:37:47;-1.70;99.90
10905;DHT22;5505;51.450;9.254;2023-02-28T04:40:35;-1.70;99.90
10905;DHT22;5505;51.450;9.254;2023-02-28T04:43:22;-1.70;99.90
10905;DHT22;5505;51.450;9.254;2023-02-28T04:46:09;-1.80;99.90
10905;DHT22;5505;51.450;9.254;2023-02-28T04:48:57;-1.70;99.90
10905;DHT22;5505;51.450;9.254;2023-02-28T04:51:45;-1.70;99.90
10905;DHT22;5505;51.450;9.254;2023-02-28T04:54:33;-1.70;99.90
10905;DHT22;5505;51.450;9.254;2023-02-28T04:57:20;-1.70;99.90
10905;DHT22;5505;51.450;9.254;2023-02-28T05:00:08;-1.70;99.90
10905;DHT22;5505;51.450;9.254;2023-02-28T05:02:57;-1.80;99.90
10905;DHT22;5505;51.450;9.254;2023-02-28T05:05:44;-1.80;99.90
10905;DHT22;5505;51.450;9.254;2023-02-28T05:08:32;-1.80;99.90
10905;DHT22;5505;51.450;9.254;2023-02-28T05:11:20;-1.10;99.90
10905;DHT22;5505;51.450;9.254;2023-02-28T05:14:12;-1.80;99.90
10905;DHT22;5505;51.450;9.254;2023-02-28T05:16:59;-1.80;99.90
10905;DHT22;5505;51.450;9.254;2023-02-28T05:19:46;-1.80;99.90
10905;DHT22;5505;51.450;9.254;2023-02-28T05:22:33;-1.80;99.90
10905;DHT22;5505;51.450;9.254;2023-02-28T05:25:21;-1.80;99.90
10905;DHT22;5505;51.450;9.254;2023-02-28T05:28:08;-1.70;99.90
10905;DHT22;5505;51.450;9.254;2023-02-28T05:30:55;-1.70;99.90
10905;DHT22;5505;51.450;9.254;2023-02-28T05:33:42;-1.60;99.90
10905;DHT22;5505;51.450;9.254;2023-02-28T05:36:29;-1.60;99.90
10905;DHT22;5505;51.450;9.254;2023-02-28T05:39:16;-1.60;99.90
10905;DHT22;5505;51.450;9.254;2023-02-28T05:42:04;0.70;99.90
10905;DHT22;5505;51.450;9.254;2023-02-28T05:44:51;-1.40;99.90
10905;DHT22;5505;51.450;9.254;2023-02-28T05:47:38;-1.60;99.90
10905;DHT22;5505;51.450;9.254;2023-02-28T05:50:25;-1.60;99.90
10905;DHT22;5505;51.450;9.254;2023-02-28T05:53:12;-1.50;99.90
10905;DHT22;5505;51.450;9.254;2023-02-28T05:55:59;-1.50;99.90
10905;DHT22;5505;51.450;9.254;2023-02-28T05:58:48;-1.50;99.90
10905;DHT22;5505;51.450;9.254;2023-02-28T06:01:36;-1.50;99.90
10905;DHT22;5505;51.450;9.254;2023-02-28T06:04:23;-1.50;99.90
10905;DHT22;5505;51.450;9.254;2023-02-28T06:07:10;-1.50;99.90
10905;DHT22;5505;51.450;9.254;2023-02-28T06:09:57;-1.40;99.90
10905;DHT22;5505;51.450;9.254;2023-02-28T06:12:44;-1.40;99.90
10905;DHT22;5505;51.450;9.254;2023-02-28T06:15:32;-1.40;99.90
10905;DHT22;5505;51.450;9.254;2023-02-28T06:18:19;-1.40;99.90
10905;DHT22;5505;51.450;9.254;2023-02-28T06:21:06;-1.40;99.90
10905;DHT22;5505;51.450;9.254;2023-02-28T06:23:54;-1.40;99.90
10905;DHT22;5505;51.450;9.254;2023-02-28T06:26:41;-1.40;99.90
10905;DHT22;5505;51.450;9.254;2023-02-28T06:29:28;-1.40;99.90
10905;DHT22;5505;51.450;9.254;2023-02-28T06:32:16;-1.50;99.90
10905;DHT22;5505;51.450;9.254;2023-02-28T06:35:03;-1.30;99.90
10905;DHT22;5505;51.450;9.254;2023-02-28T06:37:50;-1.30;99.90
10905;DHT22;5505;51.450;9.254;2023-02-28T06:40:37;-0.60;99.90
10905;DHT22;5505;51.450;9.254;2023-02-28T06:43:24;-1.30;99.90
10905;DHT22;5505;51.450;9.254;2023-02-28T06:46:13;-1.20;99.90
10905;DHT22;5505;51.450;9.254;2023-02-28T06:49:02;-1.20;99.90
10905;DHT22;5505;51.450;9.254;2023-02-28T06:51:49;-1.20;99.90
10905;DHT22;5505;51.450;9.254;2023-02-28T06:54:36;-1.20;99.90
10905;DHT22;5505;51.450;9.254;2023-02-28T06:57:23;-1.30;99.90
10905;DHT22;5505;51.450;9.254;2023-02-28T07:00:11;-1.20;99.90
10905;DHT22;5505;51.450;9.254;2023-02-28T07:02:58;-1.20;99.90
10905;DHT22;5505;51.450;9.254;2023-02-28T07:05:46;-1.20;99.90
10905;DHT22;5505;51.450;9.254;2023-02-28T07:08:33;-2.70;99.90
10905;DHT22;5505;51.450;9.254;2023-02-28T07:11:22;-1.20;99.90
10905;DHT22;5505;51.450;9.254;2023-02-28T07:14:10;-1.10;99.90
10905;DHT22;5505;51.450;9.254;2023-02-28T07:16:57;-1.10;99.90
10905;DHT22;5505;51.450;9.254;2023-02-28T07:19:44;-1.10;99.90
10905;DHT22;5505;51.450;9.254;2023-02-28T07:22:32;-1.10;99.90
10905;DHT22;5505;51.450;9.254;2023-02-28T07:25:22;1.60;99.90
10905;DHT22;5505;51.450;9.254;2023-02-28T07:28:09;0.10;99.90
10905;DHT22;5505;51.450;9.254;2023-02-28T07:30:55;-1.00;99.90
10905;DHT22;5505;51.450;9.254;2023-02-28T07:33:42;-0.90;99.90
10905;DHT22;5505;51.450;9.254;2023-02-28T07:36:29;2.00;99.90
10905;DHT22;5505;51.450;9.254;2023-02-28T07:39:17;-0.80;99.90
10905;DHT22;5505;51.450;9.254;2023-02-28T07:42:04;-0.70;99.90
10905;DHT22;5505;51.450;9.254;2023-02-28T07:44:51;-0.60;99.90
10905;DHT22;5505;51.450;9.254;2023-02-28T07:47:39;-0.50;99.90
10905;DHT22;5505;51.450;9.254;2023-02-28T07:50:26;-0.50;99.90
10905;DHT22;5505;51.450;9.254;2023-02-28T07:53:14;-0.40;99.90
10905;DHT22;5505;51.450;9.254;2023-02-28T07:56:03;-0.30;99.90
10905;DHT22;5505;51.450;9.254;2023-02-28T07:58:50;-0.20;99.90
10905;DHT22;5505;51.450;9.254;2023-02-28T08:01:37;-0.10;99.90
10905;DHT22;5505;51.450;9.254;2023-02-28T08:04:23;0.00;99.90
10905;DHT22;5505;51.450;9.254;2023-02-28T08:07:12;0.00;99.90
10905;DHT22;5505;51.450;9.254;2023-02-28T08:09:59;0.10;99.90
10905;DHT22;5505;51.450;9.254;2023-02-28T08:12:47;0.30;99.90
10905;DHT22;5505;51.450;9.254;2023-02-28T08:15:34;0.40;99.90
10905;DHT22;5505;51.450;9.254;2023-02-28T08:18:22;0.70;99.90
10905;DHT22;5505;51.450;9.254;2023-02-28T08:21:09;0.70;99.90
10905;DHT22;5505;51.450;9.254;2023-02-28T08:23:56;1.00;99.90
10905;DHT22;5505;51.450;9.254;2023-02-28T08:26:43;1.00;99.90
10905;DHT22;5505;51.450;9.254;2023-02-28T08:29:31;1.00;99.90
10905;DHT22;5505;51.450;9.254;2023-02-28T08:32:19;1.00;99.90
10905;DHT22;5505;51.450;9.254;2023-02-28T08:35:06;1.00;99.90
10905;DHT22;5505;51.450;9.254;2023-02-28T08:37:54;1.10;99.90
10905;DHT22;5505;51.450;9.254;2023-02-28T08:40:41;1.20;99.90
10905;DHT22;5505;51.450;9.254;2023-02-28T08:43:28;1.30;99.90
10905;DHT22;5505;51.450;9.254;2023-02-28T08:46:17;1.40;99.90
10905;DHT22;5505;51.450;9.254;2023-02-28T08:49:04;1.40;99.90
10905;DHT22;5505;51.450;9.254;2023-02-28T08:51:50;1.50;99.90
10905;DHT22;5505;51.450;9.254;2023-02-28T08:54:37;1.60;99.90
10905;DHT22;5505;51.450;9.254;2023-02-28T08:57:24;1.50;99.90
10905;DHT22;5505;51.450;9.254;2023-02-28T09:00:13;2.70;99.90
10905;DHT22;5505;51.450;9.254;2023-02-28T09:03:01;1.70;99.90
10905;DHT22;5505;51.450;9.254;2023-02-28T09:05:53;1.70;99.90
10905;DHT22;5505;51.450;9.254;2023-02-28T09:08:40;1.80;99.90
10905;DHT22;5505;51.450;9.254;2023-02-28T09:11:27;1.90;99.90
10905;DHT22;5505;51.450;9.254;2023-02-28T09:14:14;1.80;99.90
10905;DHT22;5505;51.450;9.254;2023-02-28T09:17:02;-0.50;99.90
10905;DHT22;5505;51.450;9.254;2023-02-28T09:19:50;1.80;99.90
10905;DHT22;5505;51.450;9.254;2023-02-28T09:22:37;1.80;99.90
10905;DHT22;5505;51.450;9.254;2023-02-28T09:25:24;1.90;99.90
10905;DHT22;5505;51.450;9.254;2023-02-28T09:28:11;2.10;99.90
10905;DHT22;5505;51.450;9.254;2023-02-28T09:30:59;2.20;99.90
10905;DHT22;5505;51.450;9.254;2023-02-28T09:33:46;2.30;99.90
10905;DHT22;5505;51.450;9.254;2023-02-28T09:36:35;2.40;99.90
10905;DHT22;5505;51.450;9.254;2023-02-28T09:39:24;2.50;99.90
10905;DHT22;5505;51.450;9.254;2023-02-28T09:42:21;2.50;99.90
10905;DHT22;5505;51.450;9.254;2023-02-28T09:45:18;2.50;99.90
10905;DHT22;5505;51.450;9.254;2023-02-28T09:48:11;4.40;99.90
10905;DHT22;5505;51.450;9.254;2023-02-28T09:51:02;2.80;99.90
10905;DHT22;5505;51.450;9.254;2023-02-28T09:53:51;2.80;99.90
10905;DHT22;5505;51.450;9.254;2023-02-28T09:56:40;4.50;99.90
10905;DHT22;5505;51.450;9.254;2023-02-28T09:59:41;2.70;99.90
10905;DHT22;5505;51.450;9.254;2023-02-28T10:02:47;2.60;99.90
10905;DHT22;5505;51.450;9.254;2023-02-28T10:05:38;2.70;99.90
10905;DHT22;5505;51.450;9.254;2023-02-28T10:08:31;2.80;99.90
10905;DHT22;5505;51.450;9.254;2023-02-28T10:11:22;2.70;99.90
10905;DHT22;5505;51.450;9.254;2023-02-28T10:14:14;3.00;99.90
10905;DHT22;5505;51.450;9.254;2023-02-28T10:17:03;2.70;99.90
10905;DHT22;5505;51.450;9.254;2023-02-28T10:19:58;3.80;99.90
10905;DHT22;5505;51.450;9.254;2023-02-28T10:22:53;2.60;99.90
10905;DHT22;5505;51.450;9.254;2023-02-28T10:25:47;2.40;99.90
10905;DHT22;5505;51.450;9.254;2023-02-28T10:28:37;2.10;99.90
10905;DHT22;5505;51.450;9.254;2023-02-28T10:31:24;2.10;99.90
10905;DHT22;5505;51.450;9.254;2023-02-28T10:34:12;2.00;99.90
10905;DHT22;5505;51.450;9.254;2023-02-28T10:37:00;2.00;99.90
10905;DHT22;5505;51.450;9.254;2023-02-28T10:39:52;1.80;99.90
10905;DHT22;5505;51.450;9.254;2023-02-28T10:42:39;1.60;99.90
10905;DHT22;5505;51.450;9.254;2023-02-28T10:45:29;1.50;99.90
10905;DHT22;5505;51.450;9.254;2023-02-28T10:48:29;1.40;99.90
10905;DHT22;5505;51.450;9.254;2023-02-28T10:51:18;1.30;99.90
10905;DHT22;5505;51.450;9.254;2023-02-28T10:54:06;1.30;99.90
10905;DHT22;5505;51.450;9.254;2023-02-28T10:57:15;1.10;99.90
10905;DHT22;5505;51.450;9.254;2023-02-28T11:00:14;1.20;99.90
10905;DHT22;5505;51.450;9.254;2023-02-28T11:03:24;1.20;99.90
10905;DHT22;5505;51.450;9.254;2023-02-28T11:06:16;1.60;99.90
10905;DHT22;5505;51.450;9.254;2023-02-28T11:09:13;1.70;99.90
10905;DHT22;5505;51.450;9.254;2023-02-28T11:12:05;2.10;99.90
10905;DHT22;5505;51.450;9.254;2023-02-28T11:14:56;2.40;99.90
10905;DHT22;5505;51.450;9.254;2023-02-28T11:17:44;2.50;99.90
10905;DHT22;5505;51.450;9.254;2023-02-28T11:20:41;2.30;99.90
10905;DHT22;5505;51.450;9.254;2023-02-28T11:23:30;2.20;99.90
10905;DHT22;5505;51.450;9.254;2023-02-28T11:26:35;2.30;99.90
10905;DHT22;5505;51.450;9.254;2023-02-28T11:29:25;2.50;99.90
10905;DHT22;5505;51.450;9.254;2023-02-28T11:32:16;2.70;99.90
10905;DHT22;5505;51.450;9.254;2023-02-28T11:35:14;2.80;99.90
10905;DHT22;5505;51.450;9.254;2023-02-28T11:38:09;2.90;99.90
10905;DHT22;5505;51.450;9.254;2023-02-28T11:41:13;2.70;99.90
10905;DHT22;5505;51.450;9.254;2023-02-28T11:44:14;2.70;99.90
10905;DHT22;5505;51.450;9.254;2023-02-28T11:47:08;2.90;99.90
10905;DHT22;5505;51.450;9.254;2023-02-28T11:50:08;3.00;99.90
10905;DHT22;5505;51.450;9.254;2023-02-28T11:53:01;3.10;99.90
10905;DHT22;5505;51.450;9.254;2023-02-28T11:55:53;3.20;99.90
10905;DHT22;5505;51.450;9.254;2023-02-28T11:58:48;3.20;99.90
10905;DHT22;5505;51.450;9.254;2023-02-28T12:01:57;3.10;99.90
10905;DHT22;5505;51.450;9.254;2023-02-28T12:04:53;3.20;99.90
10905;DHT22;5505;51.450;9.254;2023-02-28T12:07:51;3.30;99.90
10905;DHT22;5505;51.450;9.254;2023-02-28T12:10:50;3.40;99.90
10905;DHT22;5505;51.450;9.254;2023-02-28T12:13:48;3.40;99.90
10905;DHT22;5505;51.450;9.254;2023-02-28T12:16:57;3.40;99.90
10905;DHT22;5505;51.450;9.254;2023-02-28T12:19:56;3.40;99.90
10905;DHT22;5505;51.450;9.254;2023-02-28T12:22:52;4.70;99.90
10905;DHT22;5505;51.450;9.254;2023-02-28T12:28:54;3.40;99.90
10905;DHT22;5505;51.450;9.254;2023-02-28T12:31:47;3.50;99.90
10905;DHT22;5505;51.450;9.254;2023-02-28T12:34:39;3.50;99.90
10905;DHT22;5505;51.450;9.254;2023-02-28T12:37:31;3.40;99.90
10905;DHT22;5505;51.450;9.254;2023-02-28T12:40:21;3.30;99.90
10905;DHT22;5505;51.450;9.254;2023-02-28T12:43:10;3.40;99.90
10905;DHT22;5505;51.450;9.254;2023-02-28T12:46:03;3.40;99.90
10905;DHT22;5505;51.450;9.254;2023-02-28T12:48:54;3.40;99.90
10905;DHT22;5505;51.450;9.254;2023-02-28T12:51:43;3.40;99.90
10905;DHT22;5505;51.450;9.254;2023-02-28T12:54:35;3.50;99.90
10905;DHT22;5505;51.450;9.254;2023-02-28T12:57:32;3.40;99.90
10905;DHT22;5505;51.450;9.254;2023-02-28T13:00:23;3.40;99.90
10905;DHT22;5505;51.450;9.254;2023-02-28T13:03:41;3.50;99.90
10905;DHT22;5505;51.450;9.254;2023-02-28T13:06:45;3.40;99.90
10905;DHT22;5505;51.450;9.254;2023-02-28T13:09:37;3.40;99.90
10905;DHT22;5505;51.450;9.254;2023-02-28T13:12:25;3.40;99.90
10905;DHT22;5505;51.450;9.254;2023-02-28T13:15:18;3.50;99.90
10905;DHT22;5505;51.450;9.254;2023-02-28T13:18:28;3.50;99.90
10905;DHT22;5505;51.450;9.254;2023-02-28T13:21:26;3.40;99.90
10905;DHT22;5505;51.450;9.254;2023-02-28T13:24:36;3.40;99.90
10905;DHT22;5505;51.450;9.254;2023-02-28T13:27:38;3.40;99.90
10905;DHT22;5505;51.450;9.254;2023-02-28T13:31:02;3.30;99.90
10905;DHT22;5505;51.450;9.254;2023-02-28T13:34:11;3.30;99.90
10905;DHT22;5505;51.450;9.254;2023-02-28T13:37:34;3.40;99.90
10905;DHT22;5505;51.450;9.254;2023-02-28T13:40:30;3.40;99.90
10905;DHT22;5505;51.450;9.254;2023-02-28T13:44:01;3.40;99.90
10905;DHT22;5505;51.450;9.254;2023-02-28T13:47:19;3.50;99.90
10905;DHT22;5505;51.450;9.254;2023-02-28T13:50:28;3.60;99.90
10905;DHT22;5505;51.450;9.254;2023-02-28T13:53:52;3.50;99.90
10905;DHT22;5505;51.450;9.254;2023-02-28T13:56:44;3.60;99.90
10905;DHT22;5505;51.450;9.254;2023-02-28T13:59:37;3.60;99.90
10905;DHT22;5505;51.450;9.254;2023-02-28T14:02:42;3.60;99.90
10905;DHT22;5505;51.450;9.254;2023-02-28T14:05:30;3.50;99.90
10905;DHT22;5505;51.450;9.254;2023-02-28T14:08:21;3.50;99.90
10905;DHT22;5505;51.450;9.254;2023-02-28T14:11:25;3.60;99.90
10905;DHT22;5505;51.450;9.254;2023-02-28T14:17:29;3.40;99.90
10905;DHT22;5505;51.450;9.254;2023-02-28T14:20:16;3.60;99.90
10905;DHT22;5505;51.450;9.254;2023-02-28T14:23:08;3.50;99.90
10905;DHT22;5505;51.450;9.254;2023-02-28T14:26:03;3.50;99.90
10905;DHT22;5505;51.450;9.254;2023-02-28T14:29:14;3.50;99.90
10905;DHT22;5505;51.450;9.254;2023-02-28T14:32:10;3.40;99.90
10905;DHT22;5505;51.450;9.254;2023-02-28T14:35:05;1.90;99.90
10905;DHT22;5505;51.450;9.254;2023-02-28T14:37:59;3.40;99.90
10905;DHT22;5505;51.450;9.254;2023-02-28T14:40:46;4.30;99.90
10905;DHT22;5505;51.450;9.254;2023-02-28T14:43:34;3.40;99.90
10905;DHT22;5505;51.450;9.254;2023-02-28T14:46:23;3.40;99.90
10905;DHT22;5505;51.450;9.254;2023-02-28T14:49:24;3.30;99.90
10905;DHT22;5505;51.450;9.254;2023-02-28T14:52:17;3.30;99.90
10905;DHT22;5505;51.450;9.254;2023-02-28T14:55:10;4.40;99.90
10905;DHT22;5505;51.450;9.254;2023-02-28T14:58:00;3.30;99.90
10905;DHT22;5505;51.450;9.254;2023-02-28T15:00:50;3.30;99.90
10905;DHT22;5505;51.450;9.254;2023-02-28T15:03:39;3.30;99.90
10905;DHT22;5505;51.450;9.254;2023-02-28T15:06:30;3.30;99.90
10905;DHT22;5505;51.450;9.254;2023-02-28T15:09:18;3.30;99.90
10905;DHT22;5505;51.450;9.254;2023-02-28T15:12:05;3.30;99.90
10905;DHT22;5505;51.450;9.254;2023-02-28T15:14:53;2.30;99.90
10905;DHT22;5505;51.450;9.254;2023-02-28T15:17:40;3.40;99.90
10905;DHT22;5505;51.450;9.254;2023-02-28T15:20:31;3.20;99.90
10905;DHT22;5505;51.450;9.254;2023-02-28T15:23:19;3.30;99.90
10905;DHT22;5505;51.450;9.254;2023-02-28T15:26:09;3.30;99.90
10905;DHT22;5505;51.450;9.254;2023-02-28T15:28:59;3.20;99.90
10905;DHT22;5505;51.450;9.254;2023-02-28T15:31:49;3.20;99.90
10905;DHT22;5505;51.450;9.254;2023-02-28T15:34:40;3.10;99.90
10905;DHT22;5505;51.450;9.254;2023-02-28T15:37:37;3.10;99.90
10905;DHT22;5505;51.450;9.254;2023-02-28T15:40:27;3.10;99.90
10905;DHT22;5505;51.450;9.254;2023-02-28T15:43:16;3.10;99.90
10905;DHT22;5505;51.450;9.254;2023-02-28T15:46:05;3.10;99.90
10905;DHT22;5505;51.450;9.254;2023-02-28T15:48:54;3.00;99.90
10905;DHT22;5505;51.450;9.254;2023-02-28T15:51:42;3.10;99.90
10905;DHT22;5505;51.450;9.254;2023-02-28T15:54:32;3.00;99.90
10905;DHT22;5505;51.450;9.254;2023-02-28T15:57:22;3.00;99.90
10905;DHT22;5505;51.450;9.254;2023-02-28T16:00:12;3.00;99.90
10905;DHT22;5505;51.450;9.254;2023-02-28T16:02:59;2.90;99.90
10905;DHT22;5505;51.450;9.254;2023-02-28T16:05:46;4.20;99.90
10905;DHT22;5505;51.450;9.254;2023-02-28T16:08:32;2.80;99.90
10905;DHT22;5505;51.450;9.254;2023-02-28T16:11:21;2.80;99.90
10905;DHT22;5505;51.450;9.254;2023-02-28T16:14:14;2.70;99.90
10905;DHT22;5505;51.450;9.254;2023-02-28T16:17:03;2.70;99.90
10905;DHT22;5505;51.450;9.254;2023-02-28T16:19:51;2.60;99.90
10905;DHT22;5505;51.450;9.254;2023-02-28T16:22:37;2.60;99.90
10905;DHT22;5505;51.450;9.254;2023-02-28T16:25:28;2.50;99.90
10905;DHT22;5505;51.450;9.254;2023-02-28T16:28:20;2.40;99.90
10905;DHT22;5505;51.450;9.254;2023-02-28T16:31:09;2.40;99.90
10905;DHT22;5505;51.450;9.254;2023-02-28T16:34:01;2.30;99.90
10905;DHT22;5505;51.450;9.254;2023-02-28T16:36:49;2.20;99.90
10905;DHT22;5505;51.450;9.254;2023-02-28T16:39:36;2.20;99.90
10905;DHT22;5505;51.450;9.254;2023-02-28T16:42:26;2.10;99.90
10905;DHT22;5505;51.450;9.254;2023-02-28T16:45:20;1.90;99.90
10905;DHT22;5505;51.450;9.254;2023-02-28T16:48:11;1.80;99.90
10905;DHT22;5505;51.450;9.254;2023-02-28T16:50:59;1.70;99.90
10905;DHT22;5505;51.450;9.254;2023-02-28T16:53:46;1.60;99.90
10905;DHT22;5505;51.450;9.254;2023-02-28T16:56:34;1.40;99.90
10905;DHT22;5505;51.450;9.254;2023-02-28T16:59:23;1.20;99.90
10905;DHT22;5505;51.450;9.254;2023-02-28T17:02:12;1.10;99.90
10905;DHT22;5505;51.450;9.254;2023-02-28T17:05:00;1.00;99.90
10905;DHT22;5505;51.450;9.254;2023-02-28T17:07:48;0.90;99.90
10905;DHT22;5505;51.450;9.254;2023-02-28T17:10:34;0.80;99.90
10905;DHT22;5505;51.450;9.254;2023-02-28T17:13:22;0.80;99.90
10905;DHT22;5505;51.450;9.254;2023-02-28T17:16:16;0.80;99.90
10905;DHT22;5505;51.450;9.254;2023-02-28T17:19:06;2.00;99.90
10905;DHT22;5505;51.450;9.254;2023-02-28T17:21:53;1.30;99.90
10905;DHT22;5505;51.450;9.254;2023-02-28T17:24:40;0.80;99.90
10905;DHT22;5505;51.450;9.254;2023-02-28T17:27:27;0.70;99.90
10905;DHT22;5505;51.450;9.254;2023-02-28T17:30:16;0.70;99.90
10905;DHT22;5505;51.450;9.254;2023-02-28T17:33:03;0.60;99.90
10905;DHT22;5505;51.450;9.254;2023-02-28T17:35:51;2.40;99.90
10905;DHT22;5505;51.450;9.254;2023-02-28T17:38:38;0.50;99.90
10905;DHT22;5505;51.450;9.254;2023-02-28T17:41:25;0.50;99.90
10905;DHT22;5505;51.450;9.254;2023-02-28T17:44:15;0.40;99.90
10905;DHT22;5505;51.450;9.254;2023-02-28T17:47:01;0.40;99.90
10905;DHT22;5505;51.450;9.254;2023-02-28T17:49:48;0.40;99.90
10905;DHT22;5505;51.450;9.254;2023-02-28T17:52:37;0.40;99.90
10905;DHT22;5505;51.450;9.254;2023-02-28T17:55:23;0.40;99.90
10905;DHT22;5505;51.450;9.254;2023-02-28T17:58:11;-0.80;99.90
10905;DHT22;5505;51.450;9.254;2023-02-28T18:00:58;0.30;99.90
10905;DHT22;5505;51.450;9.254;2023-02-28T18:03:45;0.20;99.90
10905;DHT22;5505;51.450;9.254;2023-02-28T18:06:35;0.20;99.90
10905;DHT22;5505;51.450;9.254;2023-02-28T18:09:32;0.10;99.90
10905;DHT22;5505;51.450;9.254;2023-02-28T18:12:19;0.10;99.90
10905;DHT22;5505;51.450;9.254;2023-02-28T18:15:06;0.10;99.90
10905;DHT22;5505;51.450;9.254;2023-02-28T18:17:53;0.10;99.90
10905;DHT22;5505;51.450;9.254;2023-02-28T18:20:40;0.10;99.90
10905;DHT22;5505;51.450;9.254;2023-02-28T18:23:27;0.00;99.90
10905;DHT22;5505;51.450;9.254;2023-02-28T18:26:16;-0.10;99.90
10905;DHT22;5505;51.450;9.254;2023-02-28T18:29:04;-0.10;99.90
10905;DHT22;5505;51.450;9.254;2023-02-28T18:31:51;-0.20;99.90
10905;DHT22;5505;51.450;9.254;2023-02-28T18:34:38;-0.20;99.90